Time;durP1;ratioP1;P1;durP2;ratioP2;P2;SDS_P1;SDS_P2;PMS_P1;PMS_P2;Temp;Humidity;BMP_temperature;BMP_pressure;BME280_temperature;BME280_humidity;BME280_pressure;Samples;Min_cycle;Max_cycle;Signal;HPM_P1;HPM_P2
2021/03/16 00:01:27;;;;;;;18.67;10.60;;;154.40;1792.00;;;;;;5032435;28;20057;-63
2021/03/16 00:03:53;;;;;;;22.58;10.93;;;154.30;1792.00;;;;;;5033324;28;20108;-66
2021/03/16 00:06:19;;;;;;;20.02;11.15;;;154.30;1792.00;;;;;;5032571;28;20037;-66
2021/03/16 00:08:44;;;;;;;23.92;11.50;;;154.30;1792.00;;;;;;5035051;28;20030;-62
2021/03/16 00:11:10;;;;;;;22.02;11.73;;;154.30;1792.00;;;;;;5035961;28;20032;-65
2021/03/16 00:13:36;;;;;;;21.13;11.23;;;154.30;1792.00;;;;;;5035459;28;20471;-61
2021/03/16 00:16:02;;;;;;;24.33;12.38;;;154.30;1792.00;;;;;;5035675;28;20056;-66
2021/03/16 00:18:28;;;;;;;25.25;12.13;;;154.30;1792.00;;;;;;5035491;28;20083;-61
2021/03/16 00:20:54;;;;;;;23.38;11.85;;;154.30;1792.00;;;;;;5036276;28;20026;-66
2021/03/16 00:23:20;;;;;;;21.98;11.75;;;154.20;1792.00;;;;;;5034430;28;20490;-66
2021/03/16 00:25:45;;;;;;;24.55;13.77;;;154.20;1792.00;;;;;;5036281;28;20060;-61
2021/03/16 00:28:11;;;;;;;25.45;14.35;;;154.20;1792.00;;;;;;5036321;28;20422;-62
2021/03/16 00:30:37;;;;;;;26.85;14.82;;;154.20;1792.00;;;;;;5037069;28;20080;-61
2021/03/16 00:33:03;;;;;;;30.65;15.75;;;154.20;1792.00;;;;;;5035291;28;20067;-66
2021/03/16 00:35:29;;;;;;;30.85;15.73;;;154.20;1817.60;;;;;;5035463;28;20417;-61
2021/03/16 00:37:55;;;;;;;33.33;15.68;;;154.20;1792.00;;;;;;5036085;28;20417;-63
2021/03/16 00:40:21;;;;;;;28.55;14.85;;;154.20;1792.00;;;;;;5035824;28;20051;-60
2021/03/16 00:42:47;;;;;;;29.05;14.77;;;154.10;1792.00;;;;;;5035669;28;20108;-62
2021/03/16 00:45:13;;;;;;;25.33;14.13;;;154.10;1792.00;;;;;;5035717;28;20033;-60
2021/03/16 00:47:39;;;;;;;25.80;13.68;;;154.10;1792.00;;;;;;5035480;28;20482;-64
2021/03/16 00:50:07;;;;;;;21.20;12.50;;;154.10;1792.00;;;;;;5035621;28;20016;-66
2021/03/16 00:52:33;;;;;;;22.05;12.48;;;154.10;1792.00;;;;;;5035391;28;20013;-67
2021/03/16 00:54:59;;;;;;;26.50;15.00;;;154.10;1792.00;;;;;;5035707;28;20079;-60
2021/03/16 00:57:24;;;;;;;23.55;13.32;;;154.00;1817.60;;;;;;5035378;28;20410;-61
2021/03/16 00:59:50;;;;;;;23.10;13.55;;;154.00;1792.00;;;;;;5035334;28;20048;-68
2021/03/16 01:02:18;;;;;;;19.80;13.32;;;154.00;1792.00;;;;;;5035557;28;20025;-61
2021/03/16 01:04:45;;;;;;;20.45;12.05;;;154.00;1792.00;;;;;;5034826;28;20042;-63
2021/03/16 01:07:11;;;;;;;18.20;10.65;;;154.00;1792.00;;;;;;5035421;28;20087;-64
2021/03/16 01:09:36;;;;;;;21.10;10.45;;;154.00;1792.00;;;;;;5035582;28;20483;-61
2021/03/16 01:12:02;;;;;;;18.42;10.77;;;154.00;1792.00;;;;;;5034721;28;20364;-67
2021/03/16 01:14:28;;;;;;;16.08;10.77;;;154.00;1792.00;;;;;;5033256;28;20402;-61
2021/03/16 01:16:54;;;;;;;17.27;11.88;;;154.00;1792.00;;;;;;5034038;28;20033;-61
2021/03/16 01:19:20;;;;;;;17.25;10.45;;;153.90;1792.00;;;;;;5034440;28;20021;-62
2021/03/16 01:21:45;;;;;;;17.23;10.35;;;153.90;1792.00;;;;;;5034867;28;20025;-62
2021/03/16 01:24:11;;;;;;;17.20;10.07;;;153.90;1792.00;;;;;;5034768;28;20029;-60
2021/03/16 01:26:37;;;;;;;15.65;10.45;;;153.90;1792.00;;;;;;5034123;28;20056;-60
2021/03/16 01:29:04;;;;;;;14.40;10.07;;;153.90;1792.00;;;;;;5034887;28;20026;-61
2021/03/16 01:31:30;;;;;;;13.45;9.68;;;153.90;1792.00;;;;;;5034330;28;20040;-61
2021/03/16 01:33:55;;;;;;;14.60;10.35;;;153.90;1792.00;;;;;;5034623;28;20379;-68
2021/03/16 01:36:21;;;;;;;19.05;9.80;;;153.90;1792.00;;;;;;5015800;28;20022;-64
2021/03/16 01:38:48;;;;;;;14.98;10.30;;;153.80;1766.40;;;;;;5034653;28;20039;-62
2021/03/16 01:41:14;;;;;;;20.05;10.55;;;153.80;1766.40;;;;;;5034657;28;20044;-60
2021/03/16 01:43:40;;;;;;;14.35;9.85;;;153.80;1766.40;;;;;;5034738;28;20467;-61
2021/03/16 01:46:06;;;;;;;13.20;9.10;;;153.80;1766.40;;;;;;5034349;28;20526;-72
2021/03/16 01:48:36;;;;;;;16.08;9.63;;;153.80;1766.40;;;;;;5034609;28;20100;-67
2021/03/16 01:51:06;;;;;;;17.98;10.18;;;153.80;1766.40;;;;;;5034524;28;20022;-71
2021/03/16 01:53:32;;;;;;;13.50;9.45;;;153.70;1766.40;;;;;;5031862;28;20075;-60
2021/03/16 01:56:00;;;;;;;14.23;8.90;;;153.70;1766.40;;;;;;5034538;28;20033;-70
2021/03/16 01:58:26;;;;;;;16.58;9.15;;;153.70;1766.40;;;;;;5034715;28;20072;-64
2021/03/16 02:00:51;;;;;;;11.70;8.77;;;153.60;1766.40;;;;;;5035016;28;20033;-64
2021/03/16 02:03:18;;;;;;;13.90;9.60;;;153.60;1792.00;;;;;;5034658;28;20383;-64
2021/03/16 02:05:44;;;;;;;15.73;9.23;;;153.60;1766.40;;;;;;5016345;28;20449;-61
2021/03/16 02:08:23;;;;;;;13.30;9.85;;;153.60;1792.00;;;;;;5034497;28;20029;-61
2021/03/16 02:11:16;;;;;;;16.70;10.65;;;128.80;1792.00;;;;;;5034638;28;20341;-65
2021/03/16 02:13:51;;;;;;;17.75;11.07;;;128.90;1766.40;;;;;;5034565;28;20375;-62
2021/03/16 02:16:23;;;;;;;12.25;9.48;;;128.90;1792.00;;;;;;5034581;28;20434;-62
2021/03/16 02:18:52;;;;;;;14.10;9.25;;;128.80;1792.00;;;;;;5034340;28;20068;-61
2021/03/16 02:21:26;;;;;;;12.10;9.38;;;128.80;1792.00;;;;;;5034392;28;20032;-61
2021/03/16 02:24:09;;;;;;;14.57;9.88;;;128.80;1792.00;;;;;;5034250;28;20033;-61
2021/03/16 02:27:14;;;;;;;13.50;8.75;;;128.80;1792.00;;;;;;5033920;28;20156;-62
2021/03/16 02:29:58;;;;;;;12.87;9.23;;;128.80;1792.00;;;;;;5031421;28;20037;-62
2021/03/16 02:32:27;;;;;;;12.00;9.10;;;128.80;1792.00;;;;;;5034207;28;20263;-61
2021/03/16 02:35:04;;;;;;;16.65;9.63;;;128.70;1792.00;;;;;;5034239;28;20025;-61
2021/03/16 02:37:35;;;;;;;14.93;9.60;;;128.70;1792.00;;;;;;5034293;28;20022;-61
2021/03/16 02:40:03;;;;;;;13.60;8.85;;;128.70;1792.00;;;;;;5034038;28;20459;-61
2021/03/16 02:42:33;;;;;;;12.10;9.18;;;128.70;1792.00;;;;;;5034034;28;20108;-61
2021/03/16 02:44:59;;;;;;;14.90;9.55;;;128.60;1817.60;;;;;;5033919;28;20490;-61
2021/03/16 02:47:26;;;;;;;13.23;9.55;;;128.60;1792.00;;;;;;5033988;28;20396;-61
2021/03/16 02:49:52;;;;;;;13.40;9.75;;;128.60;1817.60;;;;;;5033954;28;20036;-61
2021/03/16 02:52:19;;;;;;;14.60;9.65;;;128.60;1792.00;;;;;;5034361;28;20032;-65
2021/03/16 02:54:46;;;;;;;17.13;10.70;;;128.60;1792.00;;;;;;5033899;28;20033;-61
2021/03/16 02:57:13;;;;;;;19.95;10.50;;;128.60;1817.60;;;;;;5033900;28;20057;-61
2021/03/16 02:59:44;;;;;;;17.15;10.07;;;128.50;1817.60;;;;;;5033908;28;20033;-65
2021/03/16 03:02:11;;;;;;;16.92;10.05;;;128.50;1817.60;;;;;;5033818;28;20029;-61
2021/03/16 03:04:38;;;;;;;15.25;9.40;;;128.50;1817.60;;;;;;5033763;28;20030;-65
2021/03/16 03:07:08;;;;;;;15.90;10.05;;;128.50;1817.60;;;;;;5033920;28;20515;-61
2021/03/16 03:09:35;;;;;;;14.10;10.30;;;128.50;1817.60;;;;;;5033668;28;20030;-62
2021/03/16 03:12:01;;;;;;;15.80;10.15;;;128.50;1817.60;;;;;;5033713;28;20030;-61
2021/03/16 03:14:27;;;;;;;15.95;10.30;;;128.50;1817.60;;;;;;5015667;28;20033;-61
2021/03/16 03:16:54;;;;;;;16.05;9.63;;;128.50;1817.60;;;;;;5033992;28;20052;-65
2021/03/16 03:19:20;;;;;;;14.50;10.00;;;128.40;1817.60;;;;;;5033698;28;20033;-62
2021/03/16 03:22:11;;;;;;;17.15;9.57;;;128.40;1817.60;;;;;;5033718;28;20033;-61
2021/03/16 03:24:44;;;;;;;15.57;9.65;;;128.40;1817.60;;;;;;5033454;28;20029;-61
2021/03/16 03:27:17;;;;;;;15.32;9.57;;;128.40;1817.60;;;;;;5033617;28;20103;-62
2021/03/16 03:29:45;;;;;;;13.65;9.45;;;128.40;1817.60;;;;;;5033354;28;20332;-67
2021/03/16 03:32:12;;;;;;;13.05;9.75;;;128.40;1817.60;;;;;;5033693;28;20049;-61
2021/03/16 03:34:40;;;;;;;16.05;10.40;;;128.40;1817.60;;;;;;5033596;28;20036;-61
2021/03/16 03:37:08;;;;;;;15.05;10.38;;;128.40;1817.60;;;;;;5033572;28;20030;-64
2021/03/16 03:39:36;;;;;;;14.60;9.57;;;128.40;1817.60;;;;;;5033312;28;20033;-62
2021/03/16 03:42:02;;;;;;;15.55;10.68;;;128.40;1817.60;;;;;;5034513;28;20105;-67
2021/03/16 03:44:31;;;;;;;15.82;9.35;;;128.30;1817.60;;;;;;5036915;28;20025;-66
2021/03/16 03:46:58;;;;;;;13.45;8.90;;;128.30;1817.60;;;;;;5019066;28;20042;-66
2021/03/16 03:49:25;;;;;;;16.02;9.45;;;128.30;1817.60;;;;;;5037325;28;20421;-66
2021/03/16 03:51:53;;;;;;;14.45;10.30;;;128.30;1817.60;;;;;;5037351;28;20033;-64
2021/03/16 03:54:19;;;;;;;21.70;11.57;;;128.20;1817.60;;;;;;5037080;28;20025;-61
2021/03/16 03:56:46;;;;;;;20.55;11.32;;;128.20;1817.60;;;;;;5037132;28;20450;-61
2021/03/16 03:59:14;;;;;;;21.40;13.27;;;128.20;1817.60;;;;;;5036891;28;20076;-59
2021/03/16 04:01:40;;;;;;;30.10;15.50;;;128.20;1843.20;;;;;;5036912;28;20029;-65
2021/03/16 04:04:06;;;;;;;32.67;16.17;;;128.20;1817.60;;;;;;5037062;28;20148;-59
2021/03/16 04:06:32;;;;;;;33.22;16.70;;;128.10;1817.60;;;;;;5036867;28;20128;-60
2021/03/16 04:08:58;;;;;;;40.72;20.45;;;128.20;1843.20;;;;;;5037156;28;20033;-65
2021/03/16 04:11:26;;;;;;;49.53;22.25;;;128.10;1843.20;;;;;;5037488;28;20036;-60
2021/03/16 04:13:53;;;;;;;45.13;19.20;;;128.20;1868.80;;;;;;5036875;28;20179;-61
2021/03/16 04:16:20;;;;;;;30.20;14.95;;;128.20;1843.20;;;;;;5036775;28;20033;-65
2021/03/16 04:18:47;;;;;;;23.63;13.00;;;128.20;1843.20;;;;;;5018400;28;20037;-64
2021/03/16 04:21:13;;;;;;;28.70;12.00;;;128.20;1843.20;;;;;;5019120;28;20065;-65
2021/03/16 04:23:40;;;;;;;24.52;12.43;;;128.20;1843.20;;;;;;5036660;28;20100;-60
2021/03/16 04:26:06;;;;;;;27.27;11.85;;;128.10;1843.20;;;;;;5036237;28;20049;-60
2021/03/16 04:28:32;;;;;;;29.58;12.45;;;128.20;1843.20;;;;;;5036578;28;20080;-62
2021/03/16 04:30:58;;;;;;;25.50;12.77;;;128.20;1843.20;;;;;;5036306;28;20064;-63
2021/03/16 04:33:24;;;;;;;32.58;14.00;;;128.20;1868.80;;;;;;5036499;28;20017;-60
2021/03/16 04:35:51;;;;;;;41.83;17.90;;;128.20;1843.20;;;;;;5036384;28;20021;-64
2021/03/16 04:38:16;;;;;;;38.60;18.70;;;128.10;1868.80;;;;;;5036342;28;20075;-61
2021/03/16 04:40:43;;;;;;;31.20;14.80;;;128.10;1868.80;;;;;;5036128;28;20033;-63
2021/03/16 04:43:10;;;;;;;32.63;14.23;;;128.10;1868.80;;;;;;5036460;28;20021;-66
2021/03/16 04:45:36;;;;;;;32.25;13.43;;;128.10;1868.80;;;;;;5036246;28;20037;-64
2021/03/16 04:48:02;;;;;;;22.80;11.80;;;128.10;1868.80;;;;;;5036360;28;20036;-60
2021/03/16 04:50:28;;;;;;;30.48;12.57;;;128.10;1868.80;;;;;;5036096;28;20032;-60
2021/03/16 04:52:54;;;;;;;26.27;11.98;;;128.10;1868.80;;;;;;5036262;28;20021;-61
2021/03/16 04:55:19;;;;;;;22.20;11.32;;;128.10;1894.40;;;;;;5035263;28;20482;-61
2021/03/16 04:57:46;;;;;;;25.92;12.30;;;128.10;1894.40;;;;;;5036060;28;20052;-60
2021/03/16 05:00:12;;;;;;;20.02;10.85;;;128.10;1894.40;;;;;;5036084;28;20021;-60
2021/03/16 05:02:38;;;;;;;26.65;12.75;;;128.10;1894.40;;;;;;5035983;28;20026;-60
2021/03/16 05:05:05;;;;;;;23.23;11.80;;;128.10;1894.40;;;;;;5036192;28;20104;-63
2021/03/16 05:07:30;;;;;;;25.63;13.10;;;128.10;1920.00;;;;;;5035937;28;20068;-60
2021/03/16 05:09:56;;;;;;;22.23;13.95;;;128.10;1894.40;;;;;;5035706;28;20026;-59
2021/03/16 05:12:22;;;;;;;21.30;14.55;;;128.10;1920.00;;;;;;5036059;28;20100;-63
2021/03/16 05:14:48;;;;;;;27.83;15.85;;;128.10;1920.00;;;;;;5036053;28;20379;-63
2021/03/16 05:17:13;;;;;;;30.63;14.77;;;128.10;1920.00;;;;;;5035605;28;20026;-60
2021/03/16 05:19:40;;;;;;;30.67;14.05;;;128.10;1920.00;;;;;;5035696;28;20025;-60
2021/03/16 05:22:05;;;;;;;28.45;13.65;;;128.10;1920.00;;;;;;5035677;28;20348;-60
2021/03/16 05:24:31;;;;;;;24.67;12.90;;;128.10;1920.00;;;;;;5035344;28;20033;-61
2021/03/16 05:26:57;;;;;;;24.52;11.13;;;128.20;1920.00;;;;;;5035064;28;20040;-61
2021/03/16 05:29:23;;;;;;;32.13;13.90;;;128.20;1920.00;;;;;;5035534;28;20029;-62
2021/03/16 05:31:49;;;;;;;24.10;11.60;;;128.20;1920.00;;;;;;5035232;28;20021;-60
2021/03/16 05:34:15;;;;;;;24.13;12.35;;;128.30;1920.00;;;;;;5035304;28;20100;-60
2021/03/16 05:36:41;;;;;;;20.38;11.45;;;128.30;1920.00;;;;;;5035184;28;20040;-61
2021/03/16 05:39:07;;;;;;;34.75;15.02;;;128.30;1920.00;;;;;;5035278;28;20475;-59
2021/03/16 05:41:35;;;;;;;28.05;15.30;;;128.30;1920.00;;;;;;5035255;28;20101;-60
2021/03/16 05:44:02;;;;;;;19.27;12.32;;;128.40;1920.00;;;;;;5035134;28;20022;-60
2021/03/16 05:46:29;;;;;;;18.00;11.70;;;128.40;1920.00;;;;;;5035158;28;20034;-60
2021/03/16 05:49:04;;;;;;;21.65;11.93;;;128.40;1945.60;;;;;;5034977;28;20017;-61
2021/03/16 05:51:30;;;;;;;19.02;12.10;;;128.40;1920.00;;;;;;5035097;28;20025;-61
2021/03/16 05:53:55;;;;;;;19.95;11.85;;;128.50;1920.00;;;;;;5034817;28;20426;-60
2021/03/16 05:56:21;;;;;;;23.52;13.02;;;128.50;1920.00;;;;;;5035085;28;20375;-60
2021/03/16 05:58:47;;;;;;;24.20;13.40;;;128.50;1920.00;;;;;;5034766;28;20056;-62
2021/03/16 06:01:14;;;;;;;20.58;11.70;;;128.50;1920.00;;;;;;5034775;28;20348;-60
2021/03/16 06:03:41;;;;;;;23.38;11.77;;;128.60;1920.00;;;;;;5034936;28;20049;-60
2021/03/16 06:06:09;;;;;;;22.42;12.07;;;128.60;1920.00;;;;;;5033910;28;20076;-61
2021/03/16 06:08:35;;;;;;;19.08;11.63;;;128.60;1920.00;;;;;;5034906;28;20037;-60
2021/03/16 06:11:00;;;;;;;19.13;11.32;;;128.70;1920.00;;;;;;5034776;28;20029;-60
2021/03/16 06:13:26;;;;;;;21.88;11.30;;;128.70;1920.00;;;;;;5034752;28;20029;-60
2021/03/16 06:15:53;;;;;;;19.25;11.20;;;128.80;1920.00;;;;;;5034650;28;20074;-60
2021/03/16 06:18:27;;;;;;;19.50;11.40;;;128.80;1920.00;;;;;;5034666;28;20489;-59
2021/03/16 06:21:03;;;;;;;17.42;11.15;;;128.80;1920.00;;;;;;5034495;28;20041;-60
2021/03/16 06:23:36;;;;;;;15.60;10.65;;;128.90;1920.00;;;;;;5034489;28;20064;-60
2021/03/16 06:26:13;;;;;;;19.60;12.38;;;128.90;1945.60;;;;;;5034023;28;20127;-59
2021/03/16 06:28:39;;;;;;;25.15;15.32;;;128.90;1920.00;;;;;;5034272;28;20033;-60
2021/03/16 06:31:05;;;;;;;20.95;12.38;;;153.60;1920.00;;;;;;5034465;28;20021;-60
2021/03/16 06:33:32;;;;;;;21.33;12.75;;;153.60;1920.00;;;;;;5034463;28;20029;-60
2021/03/16 06:35:59;;;;;;;20.17;12.50;;;153.70;1920.00;;;;;;5034327;28;20186;-70
2021/03/16 06:38:26;;;;;;;19.70;12.27;;;153.70;1920.00;;;;;;5034094;28;20025;-73
2021/03/16 06:40:51;;;;;;;22.85;13.63;;;153.70;1920.00;;;;;;5034341;28;20026;-72
2021/03/16 06:43:21;;;;;;;28.20;13.48;;;153.70;1920.00;;;;;;5033851;28;20105;-63
2021/03/16 06:45:51;;;;;;;25.77;13.23;;;153.80;1920.00;;;;;;5034197;28;20032;-72
2021/03/16 06:48:18;;;;;;;22.17;12.32;;;153.80;1920.00;;;;;;5034189;28;20030;-72
2021/03/16 06:50:45;;;;;;;24.98;14.15;;;153.90;1920.00;;;;;;5034014;28;20060;-65
2021/03/16 06:53:20;;;;;;;24.02;14.15;;;153.90;1920.00;;;;;;5033980;28;20026;-67
2021/03/16 06:55:57;;;;;;;24.48;12.90;;;153.90;1920.00;;;;;;5034008;28;20021;-72
2021/03/16 06:58:31;;;;;;;26.80;14.75;;;154.00;1920.00;;;;;;5033976;28;20071;-72
2021/03/16 07:01:09;;;;;;;25.40;14.90;;;154.00;1920.00;;;;;;5033769;28;20025;-71
2021/03/16 07:03:36;;;;;;;21.17;13.32;;;154.10;1920.00;;;;;;5033618;28;20452;-64
2021/03/16 07:06:20;;;;;;;19.35;13.20;;;154.10;1920.00;;;;;;5033895;28;20383;-72
2021/03/16 07:08:47;;;;;;;21.38;12.35;;;154.20;1920.00;;;;;;5033958;28;20036;-72
2021/03/16 07:11:23;;;;;;;24.58;14.60;;;154.20;1920.00;;;;;;5033779;28;20017;-71
2021/03/16 07:13:49;;;;;;;25.35;14.20;;;154.30;1920.00;;;;;;5033824;28;20024;-71
2021/03/16 07:16:14;;;;;;;22.38;14.15;;;154.30;1920.00;;;;;;5033629;28;20029;-71
2021/03/16 07:18:45;;;;;;;22.77;15.13;;;154.40;1894.40;;;;;;5033677;28;20021;-61
2021/03/16 07:21:25;;;;;;;19.38;14.30;;;154.50;1894.40;;;;;;5033561;28;20026;-67
2021/03/16 07:23:53;;;;;;;23.17;14.18;;;154.50;1894.40;;;;;;5033710;28;20471;-67
2021/03/16 07:26:19;;;;;;;20.60;13.02;;;179.20;1894.40;;;;;;5033318;28;20050;-71
2021/03/16 07:28:46;;;;;;;29.35;17.60;;;179.20;1894.40;;;;;;5033564;28;20022;-69
2021/03/16 07:31:13;;;;;;;22.25;15.35;;;179.30;1894.40;;;;;;5033469;28;20021;-69
2021/03/16 07:33:39;;;;;;;19.88;12.57;;;179.40;1894.40;;;;;;5033778;28;20032;-69
2021/03/16 07:36:06;;;;;;;21.40;11.63;;;179.40;1868.80;;;;;;5033698;28;20472;-68
2021/03/16 07:38:34;;;;;;;18.75;11.52;;;179.60;1868.80;;;;;;5033095;28;20029;-66
2021/03/16 07:41:00;;;;;;;16.60;10.88;;;179.60;1868.80;;;;;;5033515;28;20029;-72
2021/03/16 07:43:36;;;;;;;14.80;9.98;;;179.80;1868.80;;;;;;5033851;28;20024;-68
2021/03/16 07:46:17;;;;;;;18.27;11.70;;;179.90;1843.20;;;;;;5033485;28;20056;-69
2021/03/16 07:48:51;;;;;;;17.00;11.73;;;180.00;1843.20;;;;;;5033572;28;20076;-71
2021/03/16 07:51:22;;;;;;;26.48;15.23;;;180.10;1843.20;;;;;;5033234;28;20104;-72
2021/03/16 07:54:00;;;;;;;21.13;13.48;;;204.80;1817.60;;;;;;5033447;28;20021;-72
2021/03/16 07:56:28;;;;;;;20.45;13.55;;;204.90;1792.00;;;;;;5033491;28;20032;-72
2021/03/16 07:58:54;;;;;;;19.10;13.30;;;205.00;1792.00;;;;;;5034017;28;20395;-72
2021/03/16 08:01:20;;;;;;;24.92;13.85;;;205.00;1792.00;;;;;;5033776;28;20021;-71
2021/03/16 08:03:46;;;;;;;20.92;13.20;;;205.10;1792.00;;;;;;5033961;28;20040;-71
2021/03/16 08:06:25;;;;;;;20.10;12.23;;;205.20;1766.40;;;;;;5033089;28;20042;-72
2021/03/16 08:08:52;;;;;;;21.48;13.48;;;205.20;1766.40;;;;;;5032831;28;20482;-65
2021/03/16 08:11:18;;;;;;;21.83;12.82;;;205.30;1740.80;;;;;;5033586;28;20026;-69
2021/03/16 08:14:00;;;;;;;23.00;13.60;;;205.30;1740.80;;;;;;5033349;28;20025;-68
2021/03/16 08:16:34;;;;;;;21.38;13.13;;;205.40;1740.80;;;;;;5032845;28;20034;-71
2021/03/16 08:19:20;;;;;;;20.23;13.13;;;205.40;1740.80;;;;;;5033353;28;20109;-71
2021/03/16 08:21:56;;;;;;;22.58;13.60;;;205.50;1715.20;;;;;;5033113;28;20110;-72
2021/03/16 08:24:33;;;;;;;22.02;14.75;;;205.60;1740.80;;;;;;5033134;28;20079;-70
2021/03/16 08:26:58;;;;;;;24.27;13.95;;;205.70;1715.20;;;;;;5033141;28;20056;-62
2021/03/16 08:29:29;;;;;;;27.02;13.05;;;230.40;1715.20;;;;;;5034021;28;20457;-60
2021/03/16 08:31:57;;;;;;;16.50;11.68;;;230.50;1689.60;;;;;;5035488;28;20037;-68
2021/03/16 08:34:28;;;;;;;19.02;11.57;;;230.60;1664.00;;;;;;5033690;28;20032;-67
2021/03/16 08:36:54;;;;;;;16.33;11.82;;;230.70;1664.00;;;;;;5035594;28;20096;-60
2021/03/16 08:39:25;;;;;;;19.98;12.10;;;230.90;1664.00;;;;;;5035421;28;20200;-65
2021/03/16 08:42:02;;;;;;;20.75;13.68;;;231.00;1664.00;;;;;;5035117;28;20428;-67
2021/03/16 08:44:31;;;;;;;24.00;13.77;;;231.20;1664.00;;;;;;5035008;28;20383;-63
2021/03/16 08:47:14;;;;;;;18.52;13.20;;;256.00;1638.40;;;;;;5035294;28;20032;-60
2021/03/16 08:49:45;;;;;;;20.90;13.25;;;256.30;1612.80;;;;;;5035007;28;20018;-64
2021/03/16 08:52:17;;;;;;;19.35;13.75;;;256.60;1587.20;;;;;;5035269;28;20028;-60
2021/03/16 08:54:43;;;;;;;17.40;13.13;;;256.80;1561.60;;;;;;5035152;28;20387;-71
2021/03/16 08:57:09;;;;;;;24.80;13.15;;;281.60;1561.60;;;;;;5035160;28;20022;-64
2021/03/16 08:59:37;;;;;;;19.25;12.50;;;281.80;1536.00;;;;;;5035387;28;20025;-65
2021/03/16 09:02:02;;;;;;;18.20;12.30;;;282.10;1510.40;;;;;;5034967;28;20475;-67
2021/03/16 09:04:28;;;;;;;19.67;13.82;;;282.30;1510.40;;;;;;5034828;28;20036;-63
2021/03/16 09:06:54;;;;;;;21.25;15.05;;;307.20;1484.80;;;;;;5034824;28;20037;-64
2021/03/16 09:09:25;;;;;;;24.08;14.57;;;307.40;1484.80;;;;;;5035560;28;20040;-61
2021/03/16 09:11:51;;;;;;;27.30;13.65;;;307.60;1459.20;;;;;;5035447;28;20033;-61
2021/03/16 09:14:19;;;;;;;18.33;13.00;;;307.80;1459.20;;;;;;5035620;28;20040;-62
2021/03/16 09:16:47;;;;;;;24.52;14.10;;;308.10;1433.60;;;;;;5035694;28;20030;-59
2021/03/16 09:19:16;;;;;;;19.33;12.63;;;332.90;1433.60;;;;;;5035600;28;20025;-71
2021/03/16 09:21:57;;;;;;;20.85;13.93;;;333.10;1408.00;;;;;;5035313;28;20561;-67
2021/03/16 09:24:25;;;;;;;20.98;13.10;;;333.30;1382.40;;;;;;5035202;28;20084;-68
2021/03/16 09:27:06;;;;;;;18.85;13.55;;;333.50;1382.40;;;;;;5035298;28;20045;-63
2021/03/16 09:29:34;;;;;;;15.60;12.10;;;333.70;1382.40;;;;;;5032112;28;20021;-60
2021/03/16 09:32:13;;;;;;;20.52;13.00;;;358.40;1331.20;;;;;;5034913;28;20032;-60
2021/03/16 09:34:44;;;;;;;18.27;12.48;;;358.50;1331.20;;;;;;5034122;28;20013;-62
2021/03/16 09:37:11;;;;;;;27.02;15.23;;;358.60;1305.60;;;;;;5034889;28;20036;-66
2021/03/16 09:39:37;;;;;;;17.80;12.88;;;358.70;1305.60;;;;;;5034614;28;20033;-66
2021/03/16 09:42:06;;;;;;;17.33;12.63;;;358.80;1280.00;;;;;;5034797;28;20025;-68
2021/03/16 09:44:37;;;;;;;23.88;14.18;;;358.80;1280.00;;;;;;5034147;28;20021;-68
2021/03/16 09:47:04;;;;;;;20.17;13.70;;;358.90;1280.00;;;;;;5034438;28;20033;-64
2021/03/16 09:49:31;;;;;;;19.02;12.75;;;358.90;1280.00;;;;;;5033407;28;20425;-63
2021/03/16 09:52:05;;;;;;;17.92;13.18;;;358.80;1254.40;;;;;;5034541;28;20028;-61
2021/03/16 09:54:51;;;;;;;23.95;15.00;;;358.80;1280.00;;;;;;5035055;28;20041;-64
2021/03/16 09:57:17;;;;;;;20.08;13.63;;;358.80;1280.00;;;;;;5035085;28;20048;-60
2021/03/16 09:59:45;;;;;;;20.88;13.77;;;358.90;1280.00;;;;;;5035056;28;20478;-61
2021/03/16 10:02:12;;;;;;;24.58;14.77;;;359.00;1280.00;;;;;;5034889;28;20030;-61
2021/03/16 10:04:50;;;;;;;21.50;14.48;;;359.10;1280.00;;;;;;5035031;28;20403;-60
2021/03/16 10:07:29;;;;;;;22.15;14.85;;;359.10;1280.00;;;;;;5034962;28;20371;-64
2021/03/16 10:10:09;;;;;;;19.60;14.27;;;359.30;1280.00;;;;;;5034594;28;20029;-63
2021/03/16 10:12:36;;;;;;;21.42;13.68;;;384.10;1280.00;;;;;;5034508;28;20506;-62
2021/03/16 10:15:02;;;;;;;16.52;12.57;;;384.40;1203.20;;;;;;5034634;28;20025;-72
2021/03/16 10:17:30;;;;;;;17.70;14.02;;;384.50;1203.20;;;;;;5034616;28;20347;-70
2021/03/16 10:20:07;;;;;;;20.48;14.10;;;384.70;1203.20;;;;;;5034691;28;20022;-61
2021/03/16 10:22:36;;;;;;;17.52;13.55;;;409.60;1203.20;;;;;;5034508;28;20101;-61
2021/03/16 10:25:07;;;;;;;18.63;13.20;;;409.80;1177.60;;;;;;5034523;28;20398;-61
2021/03/16 10:27:34;;;;;;;20.67;13.90;;;410.00;1177.60;;;;;;5034686;28;20033;-68
2021/03/16 10:30:10;;;;;;;15.98;12.80;;;410.20;1126.40;;;;;;5016631;28;20029;-71
2021/03/16 10:32:38;;;;;;;20.63;14.38;;;410.30;1126.40;;;;;;5034441;28;20025;-61
2021/03/16 10:35:04;;;;;;;21.27;14.00;;;410.30;1100.80;;;;;;5033963;28;20026;-67
2021/03/16 10:37:30;;;;;;;17.83;13.32;;;410.40;1075.20;;;;;;5034126;28;20025;-65
2021/03/16 10:39:59;;;;;;;18.88;13.73;;;410.40;1075.20;;;;;;5034107;28;20109;-61
2021/03/16 10:42:25;;;;;;;19.70;13.13;;;410.40;1075.20;;;;;;5034297;28;20033;-72
2021/03/16 10:44:51;;;;;;;21.33;13.57;;;410.30;1075.20;;;;;;5034174;28;20029;-61
2021/03/16 10:47:17;;;;;;;20.42;13.10;;;410.20;1075.20;;;;;;5034099;28;20379;-70
2021/03/16 10:49:43;;;;;;;17.35;13.23;;;410.20;1100.80;;;;;;5034164;28;20025;-72
2021/03/16 10:52:09;;;;;;;18.08;12.88;;;410.10;1100.80;;;;;;5033659;28;20071;-61
2021/03/16 10:54:36;;;;;;;16.52;12.68;;;410.10;1100.80;;;;;;5034063;28;20049;-61
2021/03/16 10:57:03;;;;;;;17.65;14.00;;;410.10;1100.80;;;;;;5034094;28;20120;-60
2021/03/16 10:59:29;;;;;;;18.40;14.10;;;410.10;1100.80;;;;;;5034065;28;20036;-71
2021/03/16 11:01:55;;;;;;;26.90;17.23;;;410.10;1100.80;;;;;;5033755;28;20367;-66
2021/03/16 11:04:21;;;;;;;24.08;14.38;;;410.10;1100.80;;;;;;5033709;28;20518;-71
2021/03/16 11:06:47;;;;;;;18.98;14.75;;;410.20;1100.80;;;;;;5033864;28;20034;-61
2021/03/16 11:09:14;;;;;;;32.72;21.25;;;410.30;1075.20;;;;;;5033742;28;20029;-62
2021/03/16 11:11:40;;;;;;;29.42;18.65;;;410.40;1100.80;;;;;;5033592;28;20040;-61
2021/03/16 11:14:07;;;;;;;21.50;14.25;;;410.40;1075.20;;;;;;5033829;28;20370;-73
2021/03/16 11:16:33;;;;;;;22.02;15.07;;;410.40;1075.20;;;;;;5033636;28;20033;-72
2021/03/16 11:18:59;;;;;;;27.63;16.65;;;410.40;1075.20;;;;;;5033706;28;20419;-61
2021/03/16 11:21:25;;;;;;;35.20;20.38;;;410.40;1075.20;;;;;;5033798;28;20029;-61
2021/03/16 11:23:51;;;;;;;43.40;22.80;;;410.40;1075.20;;;;;;5033622;28;20378;-61
2021/03/16 11:26:17;;;;;;;41.55;22.83;;;410.40;1075.20;;;;;;5033213;28;20053;-61
2021/03/16 11:28:43;;;;;;;30.63;18.08;;;410.40;1075.20;;;;;;5033590;28;20028;-61
2021/03/16 11:31:09;;;;;;;64.72;18.85;;;410.40;1075.20;;;;;;5033547;28;20025;-61
2021/03/16 11:33:35;;;;;;;39.22;15.85;;;410.30;1075.20;;;;;;5033469;28;20026;-64
2021/03/16 11:36:01;;;;;;;26.40;15.15;;;410.30;1075.20;;;;;;5033655;28;20108;-61
2021/03/16 11:38:26;;;;;;;26.02;16.35;;;410.30;1075.20;;;;;;5033668;28;20025;-65
2021/03/16 11:40:52;;;;;;;20.55;14.48;;;410.40;1075.20;;;;;;5033217;28;20032;-71
2021/03/16 11:43:18;;;;;;;36.05;16.02;;;410.30;1075.20;;;;;;5033529;28;20113;-61
2021/03/16 11:45:44;;;;;;;21.25;13.63;;;410.30;1049.60;;;;;;5015364;28;20041;-61
2021/03/16 11:48:10;;;;;;;17.88;12.68;;;410.30;1049.60;;;;;;5033222;28;20029;-73
2021/03/16 11:50:37;;;;;;;18.77;12.45;;;410.30;1075.20;;;;;;5033354;28;20025;-61
2021/03/16 11:53:04;;;;;;;18.35;13.55;;;410.30;1049.60;;;;;;5033367;28;20105;-73
2021/03/16 11:55:29;;;;;;;18.27;13.32;;;410.40;1024.00;;;;;;5033421;28;20026;-73
2021/03/16 11:57:55;;;;;;;19.83;13.85;;;410.50;1049.60;;;;;;5033494;28;20593;-73
2021/03/16 12:00:21;;;;;;;18.40;11.93;;;410.50;1024.00;;;;;;5033168;28;20044;-61
2021/03/16 12:02:47;;;;;;;21.92;13.38;;;435.20;1024.00;;;;;;5033766;28;20097;-72
2021/03/16 12:05:13;;;;;;;27.27;14.65;;;435.30;1024.00;;;;;;5036079;28;20398;-74
2021/03/16 12:07:39;;;;;;;21.55;15.80;;;435.30;1024.00;;;;;;5037159;28;20025;-61